sensor_id;sensor_type;location;lat;lon;timestamp;pressure;altitude;pressure_sealevel;temperature;humidity
46456;BME280;64052;47.466;9.094;2023-04-22T00:03:28;95142.13;;;11.37;68.07
46456;BME280;64052;47.466;9.094;2023-04-22T00:08:30;95136.41;;;11.42;67.61
46456;BME280;64052;47.466;9.094;2023-04-22T00:13:31;95140.47;;;11.36;67.98
46456;BME280;64052;47.466;9.094;2023-04-22T00:18:34;95146.09;;;11.42;68.07
46456;BME280;64052;47.466;9.094;2023-04-22T00:23:35;95151.84;;;11.37;67.64
46456;BME280;64052;47.466;9.094;2023-04-22T00:28:37;95139.03;;;11.42;67.37
46456;BME280;64052;47.466;9.094;2023-04-22T00:33:38;95135.91;;;11.47;67.09
46456;BME280;64052;47.466;9.094;2023-04-22T00:38:47;95134.81;;;11.31;65.73
46456;BME280;64052;47.466;9.094;2023-04-22T00:43:49;95133.50;;;10.91;65.38
46456;BME280;64052;47.466;9.094;2023-04-22T00:48:51;95130.44;;;10.67;65.67
46456;BME280;64052;47.466;9.094;2023-04-22T00:53:53;95125.75;;;10.43;67.40
46456;BME280;64052;47.466;9.094;2023-04-22T00:58:55;95133.38;;;10.46;67.78
46456;BME280;64052;47.466;9.094;2023-04-22T01:03:58;95121.69;;;10.49;67.87
46456;BME280;64052;47.466;9.094;2023-04-22T01:09:00;95128.31;;;10.53;67.98
46456;BME280;64052;47.466;9.094;2023-04-22T01:14:02;95131.75;;;10.81;66.68
46456;BME280;64052;47.466;9.094;2023-04-22T01:19:07;95142.91;;;10.75;66.87
46456;BME280;64052;47.466;9.094;2023-04-22T01:24:08;95137.84;;;10.64;66.82
46456;BME280;64052;47.466;9.094;2023-04-22T01:29:11;95136.91;;;10.55;67.07
46456;BME280;64052;47.466;9.094;2023-04-22T01:34:13;95131.31;;;10.40;67.09
46456;BME280;64052;47.466;9.094;2023-04-22T01:39:14;95134.81;;;10.31;67.66
46456;BME280;64052;47.466;9.094;2023-04-22T01:44:16;95134.50;;;10.06;66.88
46456;BME280;64052;47.466;9.094;2023-04-22T01:49:18;95136.44;;;9.66;66.95
46456;BME280;64052;47.466;9.094;2023-04-22T01:54:19;95138.81;;;9.59;68.34
46456;BME280;64052;47.466;9.094;2023-04-22T01:59:24;95128.72;;;9.54;68.83
46456;BME280;64052;47.466;9.094;2023-04-22T02:04:25;95129.56;;;9.55;67.50
46456;BME280;64052;47.466;9.094;2023-04-22T02:09:27;95122.50;;;9.46;68.03
46456;BME280;64052;47.466;9.094;2023-04-22T02:14:28;95135.28;;;9.21;68.19
46456;BME280;64052;47.466;9.094;2023-04-22T02:19:36;95130.16;;;9.39;68.19
46456;BME280;64052;47.466;9.094;2023-04-22T02:24:38;95132.31;;;9.63;67.37
46456;BME280;64052;47.466;9.094;2023-04-22T02:29:40;95139.94;;;9.66;66.46
46456;BME280;64052;47.466;9.094;2023-04-22T02:34:42;95144.66;;;9.53;66.55
46456;BME280;64052;47.466;9.094;2023-04-22T02:39:44;95140.66;;;9.59;66.89
46456;BME280;64052;47.466;9.094;2023-04-22T02:44:45;95138.66;;;9.70;66.75
46456;BME280;64052;47.466;9.094;2023-04-22T02:49:47;95144.50;;;9.54;66.74
46456;BME280;64052;47.466;9.094;2023-04-22T02:54:48;95134.63;;;9.09;66.48
46456;BME280;64052;47.466;9.094;2023-04-22T02:59:50;95150.81;;;9.04;67.59
46456;BME280;64052;47.466;9.094;2023-04-22T03:04:54;95146.34;;;9.34;67.70
46456;BME280;64052;47.466;9.094;2023-04-22T03:09:55;95141.34;;;9.51;66.47
46456;BME280;64052;47.466;9.094;2023-04-22T03:14:57;95131.91;;;9.58;66.69
46456;BME280;64052;47.466;9.094;2023-04-22T03:20:03;95134.16;;;9.43;67.08
46456;BME280;64052;47.466;9.094;2023-04-22T03:25:05;95132.38;;;9.24;66.46
46456;BME280;64052;47.466;9.094;2023-04-22T03:30:07;95145.41;;;9.16;66.46
46456;BME280;64052;47.466;9.094;2023-04-22T03:35:09;95143.59;;;9.26;66.62
46456;BME280;64052;47.466;9.094;2023-04-22T03:40:11;95143.44;;;9.37;65.62
46456;BME280;64052;47.466;9.094;2023-04-22T03:45:14;95147.88;;;9.37;65.62
46456;BME280;64052;47.466;9.094;2023-04-22T03:50:21;95146.22;;;9.36;65.42
46456;BME280;64052;47.466;9.094;2023-04-22T03:55:25;95152.84;;;9.40;64.51
46456;BME280;64052;47.466;9.094;2023-04-22T04:00:29;95149.25;;;9.41;64.70
46456;BME280;64052;47.466;9.094;2023-04-22T04:05:41;95154.94;;;9.26;64.65
46456;BME280;64052;47.466;9.094;2023-04-22T04:10:42;95167.53;;;9.23;65.01
46456;BME280;64052;47.466;9.094;2023-04-22T04:15:45;95165.47;;;9.26;65.52
46456;BME280;64052;47.466;9.094;2023-04-22T04:20:49;95171.00;;;9.13;65.38
46456;BME280;64052;47.466;9.094;2023-04-22T04:25:51;95166.19;;;9.09;65.20
46456;BME280;64052;47.466;9.094;2023-04-22T04:30:53;95167.56;;;9.03;66.01
46456;BME280;64052;47.466;9.094;2023-04-22T04:35:56;95169.63;;;9.09;65.34
46456;BME280;64052;47.466;9.094;2023-04-22T04:41:03;95173.34;;;9.07;65.48
46456;BME280;64052;47.466;9.094;2023-04-22T04:46:06;95171.28;;;9.10;65.71
46456;BME280;64052;47.466;9.094;2023-04-22T04:51:10;95171.56;;;9.07;66.13
46456;BME280;64052;47.466;9.094;2023-04-22T04:56:17;95176.00;;;8.97;65.71
46456;BME280;64052;47.466;9.094;2023-04-22T05:01:20;95184.84;;;8.96;65.85
46456;BME280;64052;47.466;9.094;2023-04-22T05:06:22;95191.91;;;9.05;65.83
46456;BME280;64052;47.466;9.094;2023-04-22T05:11:32;95197.44;;;9.12;65.66
46456;BME280;64052;47.466;9.094;2023-04-22T05:16:36;95202.00;;;8.90;66.08
46456;BME280;64052;47.466;9.094;2023-04-22T05:21:38;95200.50;;;9.07;65.23
46456;BME280;64052;47.466;9.094;2023-04-22T05:26:40;95209.34;;;9.26;65.68
46456;BME280;64052;47.466;9.094;2023-04-22T05:31:47;95219.06;;;9.45;66.47
46456;BME280;64052;47.466;9.094;2023-04-22T05:36:50;95217.78;;;9.49;67.36
46456;BME280;64052;47.466;9.094;2023-04-22T05:41:51;95212.09;;;9.64;67.03
46456;BME280;64052;47.466;9.094;2023-04-22T05:46:53;95205.66;;;9.86;66.29
46456;BME280;64052;47.466;9.094;2023-04-22T05:51:56;95198.88;;;9.93;66.85
46456;BME280;64052;47.466;9.094;2023-04-22T05:57:02;95204.78;;;10.15;65.87
46456;BME280;64052;47.466;9.094;2023-04-22T06:02:04;95203.63;;;10.27;65.91
46456;BME280;64052;47.466;9.094;2023-04-22T06:07:06;95194.41;;;10.42;65.16
46456;BME280;64052;47.466;9.094;2023-04-22T06:12:09;95196.31;;;10.49;64.11
46456;BME280;64052;47.466;9.094;2023-04-22T06:17:11;95204.88;;;10.61;63.01
46456;BME280;64052;47.466;9.094;2023-04-22T06:22:12;95205.44;;;10.55;63.37
46456;BME280;64052;47.466;9.094;2023-04-22T06:27:14;95196.34;;;10.67;63.10
46456;BME280;64052;47.466;9.094;2023-04-22T06:32:15;95200.63;;;10.78;62.56
46456;BME280;64052;47.466;9.094;2023-04-22T06:37:17;95210.75;;;11.01;61.96
46456;BME280;64052;47.466;9.094;2023-04-22T06:42:19;95200.84;;;10.85;62.94
46456;BME280;64052;47.466;9.094;2023-04-22T06:47:39;95211.41;;;11.03;62.60
46456;BME280;64052;47.466;9.094;2023-04-22T06:52:44;95202.31;;;11.16;62.53
46456;BME280;64052;47.466;9.094;2023-04-22T06:57:45;95204.09;;;11.15;62.95
46456;BME280;64052;47.466;9.094;2023-04-22T07:02:47;95208.88;;;11.30;62.98
46456;BME280;64052;47.466;9.094;2023-04-22T07:07:49;95207.50;;;11.44;63.09
46456;BME280;64052;47.466;9.094;2023-04-22T07:12:54;95216.00;;;11.74;62.82
46456;BME280;64052;47.466;9.094;2023-04-22T07:17:55;95206.91;;;11.76;62.80
46456;BME280;64052;47.466;9.094;2023-04-22T07:22:57;95212.94;;;11.87;62.45
46456;BME280;64052;47.466;9.094;2023-04-22T07:27:58;95215.72;;;11.85;62.54
46456;BME280;64052;47.466;9.094;2023-04-22T07:33:00;95216.09;;;11.90;62.14
46456;BME280;64052;47.466;9.094;2023-04-22T07:38:02;95209.41;;;12.22;62.78
46456;BME280;64052;47.466;9.094;2023-04-22T07:43:03;95208.28;;;12.76;61.23
46456;BME280;64052;47.466;9.094;2023-04-22T07:48:04;95206.09;;;13.23;59.11
46456;BME280;64052;47.466;9.094;2023-04-22T07:53:06;95200.47;;;13.43;57.50
46456;BME280;64052;47.466;9.094;2023-04-22T07:58:08;95195.38;;;13.58;56.17
46456;BME280;64052;47.466;9.094;2023-04-22T08:03:09;95201.16;;;13.86;55.63
46456;BME280;64052;47.466;9.094;2023-04-22T08:08:11;95201.59;;;14.23;52.86
46456;BME280;64052;47.466;9.094;2023-04-22T08:13:12;95195.91;;;14.43;50.94
46456;BME280;64052;47.466;9.094;2023-04-22T08:18:16;95191.66;;;14.73;53.38
46456;BME280;64052;47.466;9.094;2023-04-22T08:23:17;95191.13;;;15.10;53.46
46456;BME280;64052;47.466;9.094;2023-04-22T08:28:19;95193.84;;;15.25;53.25
46456;BME280;64052;47.466;9.094;2023-04-22T08:33:20;95191.97;;;15.34;53.53
46456;BME280;64052;47.466;9.094;2023-04-22T08:38:22;95202.66;;;15.49;52.43
46456;BME280;64052;47.466;9.094;2023-04-22T08:43:26;95194.78;;;15.55;53.39
46456;BME280;64052;47.466;9.094;2023-04-22T08:48:28;95193.19;;;15.69;54.67
46456;BME280;64052;47.466;9.094;2023-04-22T08:53:30;95191.09;;;16.03;54.08
46456;BME280;64052;47.466;9.094;2023-04-22T08:58:32;95187.00;;;16.30;53.58
46456;BME280;64052;47.466;9.094;2023-04-22T09:03:38;95191.47;;;16.45;51.89
46456;BME280;64052;47.466;9.094;2023-04-22T09:08:40;95187.16;;;16.59;52.29
46456;BME280;64052;47.466;9.094;2023-04-22T09:13:42;95182.41;;;16.69;51.36
46456;BME280;64052;47.466;9.094;2023-04-22T09:18:43;95172.97;;;17.04;48.16
46456;BME280;64052;47.466;9.094;2023-04-22T09:23:49;95176.03;;;17.22;46.62
46456;BME280;64052;47.466;9.094;2023-04-22T09:28:53;95179.28;;;17.39;45.57
46456;BME280;64052;47.466;9.094;2023-04-22T09:33:59;95181.09;;;17.82;49.11
46456;BME280;64052;47.466;9.094;2023-04-22T09:39:05;95161.41;;;18.05;44.47
46456;BME280;64052;47.466;9.094;2023-04-22T09:44:14;95161.63;;;18.10;43.86
46456;BME280;64052;47.466;9.094;2023-04-22T09:49:16;95153.22;;;18.14;42.61
46456;BME280;64052;47.466;9.094;2023-04-22T09:54:18;95150.84;;;18.25;44.46
46456;BME280;64052;47.466;9.094;2023-04-22T09:59:27;95151.22;;;18.58;45.23
46456;BME280;64052;47.466;9.094;2023-04-22T10:04:29;95144.28;;;18.70;43.61
46456;BME280;64052;47.466;9.094;2023-04-22T10:09:31;95142.50;;;18.91;45.70
46456;BME280;64052;47.466;9.094;2023-04-22T10:14:33;95143.44;;;19.12;45.89
46456;BME280;64052;47.466;9.094;2023-04-22T10:19:34;95144.88;;;19.14;45.28
46456;BME280;64052;47.466;9.094;2023-04-22T10:24:36;95131.16;;;19.44;46.25
46456;BME280;64052;47.466;9.094;2023-04-22T10:29:40;95130.97;;;19.52;45.56
46456;BME280;64052;47.466;9.094;2023-04-22T10:34:43;95125.81;;;19.71;43.87
46456;BME280;64052;47.466;9.094;2023-04-22T10:40:05;95128.69;;;19.83;42.97
46456;BME280;64052;47.466;9.094;2023-04-22T10:45:12;95121.28;;;20.05;42.68
46456;BME280;64052;47.466;9.094;2023-04-22T10:50:20;95121.88;;;20.07;42.16
46456;BME280;64052;47.466;9.094;2023-04-22T10:55:22;95110.13;;;20.22;42.05
46456;BME280;64052;47.466;9.094;2023-04-22T11:00:30;95118.78;;;20.11;39.71
46456;BME280;64052;47.466;9.094;2023-04-22T11:05:35;95127.22;;;20.21;38.96
46456;BME280;64052;47.466;9.094;2023-04-22T11:10:42;95123.50;;;20.22;40.14
46456;BME280;64052;47.466;9.094;2023-04-22T11:15:52;95120.75;;;20.49;38.58
46456;BME280;64052;47.466;9.094;2023-04-22T11:20:55;95114.38;;;20.50;37.36
46456;BME280;64052;47.466;9.094;2023-04-22T11:25:59;95115.53;;;20.68;39.57
46456;BME280;64052;47.466;9.094;2023-04-22T11:36:04;95122.28;;;20.90;39.93
46456;BME280;64052;47.466;9.094;2023-04-22T11:41:05;95110.22;;;21.06;40.39
46456;BME280;64052;47.466;9.094;2023-04-22T11:46:07;95112.56;;;21.28;42.92
46456;BME280;64052;47.466;9.094;2023-04-22T11:51:09;95112.53;;;21.60;41.83
46456;BME280;64052;47.466;9.094;2023-04-22T11:56:11;95111.69;;;21.67;40.69
46456;BME280;64052;47.466;9.094;2023-04-22T12:01:13;95114.38;;;21.60;41.59
46456;BME280;64052;47.466;9.094;2023-04-22T12:06:15;95110.16;;;21.78;41.92
46456;BME280;64052;47.466;9.094;2023-04-22T12:11:16;95103.97;;;21.77;41.33
46456;BME280;64052;47.466;9.094;2023-04-22T12:16:18;95111.47;;;21.94;40.58
46456;BME280;64052;47.466;9.094;2023-04-22T12:21:23;95113.34;;;22.12;39.08
46456;BME280;64052;47.466;9.094;2023-04-22T12:26:26;95113.81;;;22.27;37.21
46456;BME280;64052;47.466;9.094;2023-04-22T12:31:28;95116.94;;;22.24;37.04
46456;BME280;64052;47.466;9.094;2023-04-22T12:36:29;95117.47;;;22.33;35.44
46456;BME280;64052;47.466;9.094;2023-04-22T12:41:31;95129.03;;;22.71;37.99
46456;BME280;64052;47.466;9.094;2023-04-22T12:46:33;95130.72;;;22.72;37.74
46456;BME280;64052;47.466;9.094;2023-04-22T12:51:35;95126.13;;;22.91;39.18
46456;BME280;64052;47.466;9.094;2023-04-22T12:56:36;95120.16;;;23.20;38.56
46456;BME280;64052;47.466;9.094;2023-04-22T13:01:38;95133.25;;;23.16;36.24
46456;BME280;64052;47.466;9.094;2023-04-22T13:06:39;95132.69;;;23.26;35.75
46456;BME280;64052;47.466;9.094;2023-04-22T13:11:43;95127.03;;;23.15;36.74
46456;BME280;64052;47.466;9.094;2023-04-22T13:16:45;95119.47;;;22.94;37.14
46456;BME280;64052;47.466;9.094;2023-04-22T13:21:46;95122.03;;;22.70;35.13
46456;BME280;64052;47.466;9.094;2023-04-22T13:26:48;95115.59;;;22.33;34.28
46456;BME280;64052;47.466;9.094;2023-04-22T13:31:50;95104.22;;;21.94;34.00
46456;BME280;64052;47.466;9.094;2023-04-22T13:36:51;95099.63;;;22.01;33.41
46456;BME280;64052;47.466;9.094;2023-04-22T13:41:53;95097.88;;;21.88;32.51
46456;BME280;64052;47.466;9.094;2023-04-22T13:46:54;95101.84;;;21.86;33.69
46456;BME280;64052;47.466;9.094;2023-04-22T13:51:56;95095.56;;;21.92;33.31
46456;BME280;64052;47.466;9.094;2023-04-22T13:56:58;95091.13;;;22.04;33.34
46456;BME280;64052;47.466;9.094;2023-04-22T14:01:59;95090.47;;;22.09;31.86
46456;BME280;64052;47.466;9.094;2023-04-22T14:07:00;95084.63;;;22.12;34.03
46456;BME280;64052;47.466;9.094;2023-04-22T14:12:03;95093.28;;;22.14;33.43
46456;BME280;64052;47.466;9.094;2023-04-22T14:17:05;95090.84;;;22.13;29.75
46456;BME280;64052;47.466;9.094;2023-04-22T14:22:07;95095.31;;;22.19;31.03
46456;BME280;64052;47.466;9.094;2023-04-22T14:27:08;95089.19;;;22.12;32.41
46456;BME280;64052;47.466;9.094;2023-04-22T14:32:12;95098.97;;;22.06;32.10
46456;BME280;64052;47.466;9.094;2023-04-22T14:37:14;95119.63;;;21.80;33.15
46456;BME280;64052;47.466;9.094;2023-04-22T14:42:15;95122.31;;;21.48;33.57
46456;BME280;64052;47.466;9.094;2023-04-22T14:47:17;95123.63;;;21.39;34.08
46456;BME280;64052;47.466;9.094;2023-04-22T14:52:18;95118.78;;;21.22;35.19
46456;BME280;64052;47.466;9.094;2023-04-22T14:57:20;95128.91;;;20.81;36.56
46456;BME280;64052;47.466;9.094;2023-04-22T15:02:23;95147.97;;;20.39;38.03
46456;BME280;64052;47.466;9.094;2023-04-22T15:07:25;95148.25;;;19.97;39.87
46456;BME280;64052;47.466;9.094;2023-04-22T15:12:27;95154.19;;;19.86;40.87
46456;BME280;64052;47.466;9.094;2023-04-22T15:17:28;95155.22;;;19.71;41.47
46456;BME280;64052;47.466;9.094;2023-04-22T15:22:30;95154.41;;;19.71;41.61
46456;BME280;64052;47.466;9.094;2023-04-22T15:27:31;95139.16;;;19.85;41.97
46456;BME280;64052;47.466;9.094;2023-04-22T15:32:33;95142.28;;;19.95;41.92
46456;BME280;64052;47.466;9.094;2023-04-22T15:37:35;95136.50;;;19.98;41.84
46456;BME280;64052;47.466;9.094;2023-04-22T15:42:36;95141.03;;;20.04;41.77
46456;BME280;64052;47.466;9.094;2023-04-22T15:47:39;95137.75;;;19.89;41.73
46456;BME280;64052;47.466;9.094;2023-04-22T15:52:41;95138.97;;;19.79;42.16
46456;BME280;64052;47.466;9.094;2023-04-22T15:57:42;95145.75;;;19.69;42.25
46456;BME280;64052;47.466;9.094;2023-04-22T16:02:44;95160.16;;;19.74;42.03
46456;BME280;64052;47.466;9.094;2023-04-22T16:07:46;95173.31;;;19.76;42.28
46456;BME280;64052;47.466;9.094;2023-04-22T16:12:47;95170.22;;;19.65;43.01
46456;BME280;64052;47.466;9.094;2023-04-22T16:17:49;95180.47;;;19.35;43.17
46456;BME280;64052;47.466;9.094;2023-04-22T16:22:50;95180.84;;;19.18;43.65
46456;BME280;64052;47.466;9.094;2023-04-22T16:27:52;95169.56;;;19.23;43.75
46456;BME280;64052;47.466;9.094;2023-04-22T16:32:54;95174.59;;;18.98;44.00
46456;BME280;64052;47.466;9.094;2023-04-22T16:37:56;95170.03;;;18.85;44.49
46456;BME280;64052;47.466;9.094;2023-04-22T16:42:57;95166.03;;;18.60;45.16
46456;BME280;64052;47.466;9.094;2023-04-22T16:47:59;95177.00;;;18.79;44.50
46456;BME280;64052;47.466;9.094;2023-04-22T16:53:00;95166.66;;;18.69;45.44
46456;BME280;64052;47.466;9.094;2023-04-22T16:58:02;95161.25;;;18.49;45.34
46456;BME280;64052;47.466;9.094;2023-04-22T17:03:03;95160.16;;;18.36;45.42
46456;BME280;64052;47.466;9.094;2023-04-22T17:08:05;95154.59;;;18.31;45.97
46456;BME280;64052;47.466;9.094;2023-04-22T17:13:06;95167.88;;;18.24;46.39
46456;BME280;64052;47.466;9.094;2023-04-22T17:18:08;95149.13;;;18.11;47.11
46456;BME280;64052;47.466;9.094;2023-04-22T17:23:09;95148.69;;;18.07;46.29
46456;BME280;64052;47.466;9.094;2023-04-22T17:28:11;95163.44;;;18.03;47.15
46456;BME280;64052;47.466;9.094;2023-04-22T17:33:13;95168.94;;;18.02;46.82
46456;BME280;64052;47.466;9.094;2023-04-22T17:38:14;95160.72;;;17.96;46.92
46456;BME280;64052;47.466;9.094;2023-04-22T17:43:16;95166.22;;;17.95;46.28
46456;BME280;64052;47.466;9.094;2023-04-22T17:48:17;95171.56;;;17.95;46.97
46456;BME280;64052;47.466;9.094;2023-04-22T17:53:20;95177.28;;;17.92;46.82
46456;BME280;64052;47.466;9.094;2023-04-22T17:58:21;95179.38;;;17.96;46.51
46456;BME280;64052;47.466;9.094;2023-04-22T18:03:23;95171.94;;;17.92;46.82
46456;BME280;64052;47.466;9.094;2023-04-22T18:08:25;95171.69;;;17.87;47.25
46456;BME280;64052;47.466;9.094;2023-04-22T18:13:27;95177.47;;;17.90;47.29
46456;BME280;64052;47.466;9.094;2023-04-22T18:18:28;95192.63;;;17.90;47.77
46456;BME280;64052;47.466;9.094;2023-04-22T18:23:30;95189.38;;;17.66;51.42
46456;BME280;64052;47.466;9.094;2023-04-22T18:28:31;95185.38;;;17.33;51.97
46456;BME280;64052;47.466;9.094;2023-04-22T18:33:33;95197.44;;;17.29;52.30
46456;BME280;64052;47.466;9.094;2023-04-22T18:38:35;95190.63;;;17.26;52.26
46456;BME280;64052;47.466;9.094;2023-04-22T18:43:36;95194.13;;;17.27;53.24
46456;BME280;64052;47.466;9.094;2023-04-22T18:48:38;95196.91;;;17.19;52.09
46456;BME280;64052;47.466;9.094;2023-04-22T18:53:39;95197.59;;;17.06;52.65
46456;BME280;64052;47.466;9.094;2023-04-22T18:58:41;95189.41;;;17.07;53.27
46456;BME280;64052;47.466;9.094;2023-04-22T19:03:42;95181.69;;;16.97;53.65
46456;BME280;64052;47.466;9.094;2023-04-22T19:08:44;95186.69;;;16.85;54.39
46456;BME280;64052;47.466;9.094;2023-04-22T19:13:45;95195.09;;;16.89;53.53
46456;BME280;64052;47.466;9.094;2023-04-22T19:18:47;95189.69;;;16.97;53.03
46456;BME280;64052;47.466;9.094;2023-04-22T19:23:48;95188.34;;;16.86;53.65
46456;BME280;64052;47.466;9.094;2023-04-22T19:28:50;95188.59;;;16.92;53.11
46456;BME280;64052;47.466;9.094;2023-04-22T19:33:51;95185.06;;;16.69;53.93
46456;BME280;64052;47.466;9.094;2023-04-22T19:38:53;95175.78;;;16.65;53.42
46456;BME280;64052;47.466;9.094;2023-04-22T19:43:54;95176.34;;;16.61;54.76
46456;BME280;64052;47.466;9.094;2023-04-22T19:48:56;95169.09;;;16.39;54.56
46456;BME280;64052;47.466;9.094;2023-04-22T19:53:57;95175.69;;;16.13;54.37
46456;BME280;64052;47.466;9.094;2023-04-22T19:58:59;95181.66;;;16.00;54.27
46456;BME280;64052;47.466;9.094;2023-04-22T20:04:01;95186.97;;;16.15;54.29
46456;BME280;64052;47.466;9.094;2023-04-22T20:09:03;95186.31;;;15.98;55.11
46456;BME280;64052;47.466;9.094;2023-04-22T20:14:06;95196.59;;;16.01;55.56
46456;BME280;64052;47.466;9.094;2023-04-22T20:19:08;95186.59;;;16.04;55.89
46456;BME280;64052;47.466;9.094;2023-04-22T20:24:11;95191.59;;;15.83;55.97
46456;BME280;64052;47.466;9.094;2023-04-22T20:29:14;95196.97;;;15.75;56.25
46456;BME280;64052;47.466;9.094;2023-04-22T20:34:17;95199.13;;;15.56;56.22
46456;BME280;64052;47.466;9.094;2023-04-22T20:39:20;95208.66;;;15.66;56.50
46456;BME280;64052;47.466;9.094;2023-04-22T20:44:23;95203.41;;;15.81;54.93
46456;BME280;64052;47.466;9.094;2023-04-22T20:49:24;95211.84;;;15.84;55.07
46456;BME280;64052;47.466;9.094;2023-04-22T20:54:26;95212.75;;;15.77;55.94
46456;BME280;64052;47.466;9.094;2023-04-22T20:59:29;95210.41;;;15.58;56.65
46456;BME280;64052;47.466;9.094;2023-04-22T21:04:31;95208.03;;;15.64;56.46
46456;BME280;64052;47.466;9.094;2023-04-22T21:09:33;95204.72;;;15.62;56.46
46456;BME280;64052;47.466;9.094;2023-04-22T21:14:36;95205.84;;;15.44;57.58
46456;BME280;64052;47.466;9.094;2023-04-22T21:19:45;95198.69;;;15.44;57.56
46456;BME280;64052;47.466;9.094;2023-04-22T21:24:50;95191.97;;;15.34;57.70
46456;BME280;64052;47.466;9.094;2023-04-22T21:29:52;95188.59;;;15.40;56.98
46456;BME280;64052;47.466;9.094;2023-04-22T21:34:54;95188.44;;;15.41;56.50
46456;BME280;64052;47.466;9.094;2023-04-22T21:39:55;95196.81;;;15.53;57.08
46456;BME280;64052;47.466;9.094;2023-04-22T21:44:57;95195.25;;;15.59;56.87
46456;BME280;64052;47.466;9.094;2023-04-22T21:49:58;95200.66;;;15.51;57.18
46456;BME280;64052;47.466;9.094;2023-04-22T21:55:00;95187.72;;;15.48;58.21
46456;BME280;64052;47.466;9.094;2023-04-22T22:00:03;95177.09;;;15.24;58.75
46456;BME280;64052;47.466;9.094;2023-04-22T22:05:05;95183.69;;;15.28;58.10
46456;BME280;64052;47.466;9.094;2023-04-22T22:10:09;95168.41;;;15.30;58.19
46456;BME280;64052;47.466;9.094;2023-04-22T22:15:11;95180.03;;;15.29;58.40
46456;BME280;64052;47.466;9.094;2023-04-22T22:20:14;95191.63;;;15.37;58.82
46456;BME280;64052;47.466;9.094;2023-04-22T22:25:15;95186.34;;;15.28;58.84
46456;BME280;64052;47.466;9.094;2023-04-22T22:30:17;95191.03;;;15.26;57.82
46456;BME280;64052;47.466;9.094;2023-04-22T22:35:19;95188.09;;;15.21;57.59
46456;BME280;64052;47.466;9.094;2023-04-22T22:40:21;95196.97;;;15.28;57.78
46456;BME280;64052;47.466;9.094;2023-04-22T22:45:22;95201.66;;;15.26;57.87
46456;BME280;64052;47.466;9.094;2023-04-22T22:50:24;95196.66;;;15.31;57.64
46456;BME280;64052;47.466;9.094;2023-04-22T22:55:25;95206.91;;;15.35;58.46
46456;BME280;64052;47.466;9.094;2023-04-22T23:00:27;95208.97;;;15.48;59.48
46456;BME280;64052;47.466;9.094;2023-04-22T23:05:28;95217.66;;;15.41;60.77
46456;BME280;64052;47.466;9.094;2023-04-22T23:10:30;95215.66;;;15.43;60.25
46456;BME280;64052;47.466;9.094;2023-04-22T23:15:31;95223.13;;;15.40;59.78
46456;BME280;64052;47.466;9.094;2023-04-22T23:20:34;95229.41;;;15.47;58.71
46456;BME280;64052;47.466;9.094;2023-04-22T23:25:35;95225.88;;;15.31;58.82
46456;BME280;64052;47.466;9.094;2023-04-22T23:30:37;95225.78;;;15.40;58.33
46456;BME280;64052;47.466;9.094;2023-04-22T23:35:40;95224.63;;;15.42;58.38
46456;BME280;64052;47.466;9.094;2023-04-22T23:40:41;95224.09;;;15.47;58.60
46456;BME280;64052;47.466;9.094;2023-04-22T23:45:43;95223.03;;;15.56;58.91
46456;BME280;64052;47.466;9.094;2023-04-22T23:50:45;95224.78;;;15.41;59.29
46456;BME280;64052;47.466;9.094;2023-04-22T23:55:47;95221.13;;;15.42;60.38
